Time;durP1;ratioP1;P1;durP2;ratioP2;P2;SDS_P1;SDS_P2;PMS_P1;PMS_P2;Temp;Humidity;BMP_temperature;BMP_pressure;BME280_temperature;BME280_humidity;BME280_pressure;Samples;Min_cycle;Max_cycle;Signal;HPM_P1;HPM_P2
2023/12/01 00:02:04;;;;;;;12.38;8.43;;;2.30;99.90;;;1.36;100.00;95575.41;4982457;28;20038;-36
2023/12/01 00:04:30;;;;;;;13.27;8.25;;;2.30;99.90;;;1.36;100.00;95574.56;4976142;28;20038;-36
2023/12/01 00:06:55;;;;;;;16.15;8.25;;;2.30;99.90;;;1.27;100.00;95553.16;4980635;28;20038;-36
2023/12/01 00:09:21;;;;;;;14.88;8.32;;;2.30;99.90;;;1.33;100.00;95568.56;4979111;28;20774;-38
2023/12/01 00:11:47;;;;;;;13.18;7.45;;;2.30;99.90;;;1.42;100.00;95571.75;4972452;28;20038;-37
2023/12/01 00:14:13;;;;;;;13.98;7.97;;;2.30;99.90;;;1.46;100.00;95568.19;4977773;28;20041;-36
2023/12/01 00:16:38;;;;;;;13.50;8.60;;;2.30;99.90;;;1.40;100.00;95566.66;4975101;28;20042;-37
2023/12/01 00:19:04;;;;;;;14.57;8.30;;;2.40;99.90;;;1.38;100.00;95559.78;4980558;28;20042;-37
2023/12/01 00:21:30;;;;;;;12.13;7.03;;;2.30;99.90;;;1.14;100.00;95539.69;4975980;28;20034;-37
2023/12/01 00:23:55;;;;;;;14.10;8.40;;;2.30;99.90;;;1.31;100.00;95574.69;4983847;28;20066;-37
2023/12/01 00:26:21;;;;;;;13.75;8.60;;;2.30;99.90;;;1.26;100.00;95569.66;4978879;28;20037;-37
2023/12/01 00:28:47;;;;;;;13.85;7.97;;;2.30;99.90;;;1.25;100.00;95567.94;4964497;28;20069;-37
2023/12/01 00:31:12;;;;;;;12.05;8.25;;;2.20;99.90;;;1.25;100.00;95567.94;4968086;28;20082;-37
2023/12/01 00:33:38;;;;;;;13.32;8.15;;;2.20;99.90;;;1.16;100.00;95563.00;4964809;28;20483;-37
2023/12/01 00:36:04;;;;;;;13.10;8.40;;;2.20;99.90;;;1.17;100.00;95579.44;4966710;28;20026;-36
2023/12/01 00:38:30;;;;;;;12.98;8.48;;;2.10;99.90;;;1.14;100.00;95560.47;4971312;28;20121;-37
2023/12/01 00:40:56;;;;;;;13.45;8.05;;;2.10;99.90;;;1.18;100.00;95571.59;4972051;28;20916;-36
2023/12/01 00:43:21;;;;;;;14.57;8.63;;;2.10;99.90;;;1.18;100.00;95571.59;4977740;28;20279;-38
2023/12/01 00:45:47;;;;;;;12.10;7.80;;;2.20;99.90;;;1.19;100.00;95573.31;4974360;28;20133;-37
2023/12/01 00:48:13;;;;;;;14.63;8.68;;;2.10;99.90;;;1.20;100.00;95568.97;4970126;28;20041;-37
2023/12/01 00:50:41;;;;;;;11.32;7.70;;;2.10;99.90;;;1.23;100.00;95572.31;4964114;28;20042;-37
2023/12/01 00:53:08;;;;;;;14.57;8.57;;;2.10;99.90;;;1.21;100.00;95576.72;4970587;28;20038;-37
2023/12/01 00:55:35;;;;;;;14.63;7.80;;;2.20;99.90;;;1.21;100.00;95579.31;4968074;28;20038;-39
2023/12/01 00:58:02;;;;;;;13.20;8.38;;;2.20;99.90;;;1.16;100.00;95588.13;4969296;28;20050;-36
2023/12/01 01:00:27;;;;;;;14.27;9.00;;;2.20;99.90;;;1.12;100.00;95593.41;4967888;28;20038;-37
2023/12/01 01:02:53;;;;;;;20.33;8.48;;;2.10;99.90;;;0.94;100.00;95565.38;4975496;28;20270;-36
2023/12/01 01:05:19;;;;;;;14.85;8.63;;;2.10;99.90;;;1.08;100.00;95589.19;4969327;28;20046;-37
2023/12/01 01:07:45;;;;;;;13.25;8.10;;;2.00;99.90;;;1.08;100.00;95577.97;4966653;28;20039;-38
2023/12/01 01:10:10;;;;;;;14.50;8.77;;;2.00;99.90;;;1.14;100.00;95578.63;4977558;28;20026;-37
2023/12/01 01:12:36;;;;;;;12.25;7.45;;;2.00;99.90;;;0.95;100.00;95560.16;4964595;28;20045;-38
2023/12/01 01:15:03;;;;;;;13.80;8.18;;;2.00;99.90;;;1.11;100.00;95586.53;4968075;28;20038;-38
2023/12/01 01:17:32;;;;;;;13.00;8.20;;;2.00;99.90;;;1.09;100.00;95582.25;4970229;28;20057;-38
2023/12/01 01:19:59;;;;;;;13.27;7.93;;;2.00;99.90;;;1.02;100.00;95578.13;4972959;28;20179;-38
2023/12/01 01:22:25;;;;;;;12.50;8.02;;;2.00;99.90;;;0.92;100.00;95578.41;4978734;28;20042;-36
2023/12/01 01:24:52;;;;;;;16.02;8.93;;;1.90;99.90;;;0.83;100.00;95583.00;4974358;28;20499;-37
2023/12/01 01:27:18;;;;;;;14.63;9.23;;;1.80;99.90;;;0.72;100.00;95583.31;4966574;28;20742;-37
2023/12/01 01:29:44;;;;;;;14.88;9.18;;;1.80;99.90;;;0.63;100.00;95584.41;4966945;28;20549;-37
2023/12/01 01:32:11;;;;;;;18.27;9.98;;;1.60;99.90;;;0.53;100.00;95586.38;4968579;28;20030;-36
2023/12/01 01:34:38;;;;;;;14.55;9.48;;;1.60;99.90;;;0.49;100.00;95595.13;4967027;28;20034;-37
2023/12/01 01:37:04;;;;;;;17.10;9.57;;;1.50;99.90;;;0.49;100.00;95589.13;4971708;28;20066;-37
2023/12/01 01:39:29;;;;;;;13.57;8.60;;;1.50;99.90;;;0.46;100.00;95577.06;4971017;28;20026;-37
2023/12/01 01:41:58;;;;;;;13.57;9.02;;;1.50;99.90;;;0.44;100.00;95572.81;4972154;28;20188;-37
2023/12/01 01:44:24;;;;;;;16.77;8.77;;;1.50;99.90;;;0.50;100.00;95603.75;4983459;28;20145;-36
2023/12/01 01:46:50;;;;;;;14.35;8.50;;;1.50;99.90;;;0.51;100.00;95592.50;4972813;28;20054;-36
2023/12/01 01:49:25;;;;;;;12.80;8.15;;;1.50;99.90;;;0.48;100.00;95587.41;4979780;28;20574;-38
2023/12/01 01:51:54;;;;;;;12.38;7.63;;;1.50;99.90;;;0.56;100.00;95593.25;4982243;28;21238;-36
2023/12/01 01:54:25;;;;;;;12.73;7.13;;;1.50;99.90;;;0.54;100.00;95588.09;4983906;28;20301;-36
2023/12/01 01:56:55;;;;;;;15.63;9.05;;;1.50;99.90;;;0.49;100.00;95597.72;4969115;28;20038;-37
2023/12/01 01:59:22;;;;;;;18.35;9.43;;;1.50;99.90;;;0.42;100.00;95600.53;4970245;28;20030;-39
2023/12/01 02:01:48;;;;;;;14.70;9.45;;;1.50;99.90;;;0.41;100.00;95604.00;4971607;28;20156;-37
2023/12/01 02:04:16;;;;;;;16.95;9.95;;;1.40;99.90;;;0.36;100.00;95617.94;4984253;28;21914;-36
2023/12/01 02:06:41;;;;;;;15.48;9.55;;;1.40;99.90;;;0.32;100.00;95616.34;4978654;28;20482;-36
2023/12/01 02:09:07;;;;;;;17.27;9.20;;;1.30;99.90;;;0.30;100.00;95631.06;4982746;28;20046;-37
2023/12/01 02:11:35;;;;;;;15.57;9.60;;;1.30;99.90;;;0.30;100.00;95630.22;4977452;28;20166;-37
2023/12/01 02:14:00;;;;;;;16.45;9.82;;;1.30;99.90;;;0.30;100.00;95620.69;4981537;28;20026;-37
2023/12/01 02:16:26;;;;;;;14.40;9.20;;;1.30;99.90;;;0.36;100.00;95606.72;4975410;28;20112;-36
2023/12/01 02:18:55;;;;;;;13.23;8.82;;;1.30;99.90;;;0.36;100.00;95592.03;4980851;28;20119;-38
2023/12/01 02:21:27;;;;;;;14.38;8.32;;;1.40;99.90;;;0.41;100.00;95604.84;4980901;28;20038;-37
2023/12/01 02:23:54;;;;;;;14.68;8.63;;;1.40;99.90;;;0.39;100.00;95609.22;4991263;28;20026;-37
2023/12/01 02:26:21;;;;;;;17.27;9.07;;;1.40;99.90;;;0.37;100.00;95598.03;4981913;28;20034;-37
2023/12/01 02:28:47;;;;;;;14.77;8.40;;;1.40;99.90;;;0.32;100.00;95607.69;4980824;28;20054;-36
2023/12/01 02:31:13;;;;;;;16.55;9.60;;;1.30;99.90;;;0.32;100.00;95608.56;4980654;28;20134;-36
2023/12/01 02:33:39;;;;;;;17.58;10.38;;;1.30;99.90;;;0.29;100.00;95615.56;4978365;28;20091;-36
2023/12/01 02:36:11;;;;;;;18.27;10.50;;;1.30;99.90;;;0.24;100.00;95604.44;4982206;28;20121;-38
2023/12/01 02:38:36;;;;;;;18.52;10.25;;;1.30;99.90;;;0.22;100.00;95611.41;4978409;28;20088;-37
2023/12/01 02:41:02;;;;;;;16.48;9.45;;;1.20;99.90;;;0.25;100.00;95622.56;4979893;28;20502;-41
2023/12/01 02:43:29;;;;;;;16.70;9.10;;;1.20;99.90;;;0.21;100.00;95607.09;4979952;28;20542;-37
2023/12/01 02:45:55;;;;;;;17.35;9.95;;;1.20;99.90;;;0.28;100.00;95606.06;4976650;28;20038;-36
2023/12/01 02:48:22;;;;;;;14.02;8.73;;;1.20;99.90;;;0.25;100.00;95595.75;4985044;28;20066;-37
2023/12/01 02:50:48;;;;;;;16.77;10.32;;;1.30;99.90;;;0.34;100.00;95608.50;4980051;28;20032;-38
2023/12/01 02:53:15;;;;;;;15.15;9.20;;;1.30;99.90;;;0.34;100.00;95622.31;4978628;28;20121;-37
2023/12/01 02:55:42;;;;;;;14.00;9.13;;;1.30;99.90;;;0.32;100.00;95618.06;4976755;28;20420;-38
2023/12/01 02:58:08;;;;;;;21.88;11.05;;;1.30;99.90;;;0.26;100.00;95626.84;4982336;28;20618;-36
2023/12/01 03:00:34;;;;;;;16.63;9.82;;;1.30;99.90;;;0.23;100.00;95619.13;4975116;28;20772;-38
2023/12/01 03:02:59;;;;;;;14.25;9.63;;;1.30;99.90;;;0.29;100.00;95615.56;4982359;28;20346;-37
2023/12/01 03:05:25;;;;;;;15.95;9.20;;;1.30;99.90;;;0.31;100.00;95608.59;4971566;28;20422;-37
2023/12/01 03:07:51;;;;;;;14.93;8.40;;;1.30;99.90;;;0.32;100.00;95599.91;4974845;28;20038;-38
2023/12/01 03:10:16;;;;;;;16.50;8.95;;;1.30;99.90;;;0.23;100.00;95600.13;4992465;28;20026;-38
2023/12/01 03:12:44;;;;;;;17.27;10.10;;;1.30;99.90;;;0.24;100.00;95610.47;4975015;28;20037;-37
2023/12/01 03:15:13;;;;;;;14.65;9.55;;;1.20;99.90;;;0.19;100.00;95605.38;4977871;28;20030;-38
2023/12/01 03:17:39;;;;;;;13.98;9.20;;;1.20;99.90;;;0.16;100.00;95618.44;4977474;28;20033;-37
2023/12/01 03:20:09;;;;;;;16.10;10.10;;;1.10;99.90;;;0.13;100.00;95615.09;4970675;28;20058;-37
2023/12/01 03:22:35;;;;;;;14.57;10.02;;;1.20;99.90;;;0.10;100.00;95628.09;4977476;28;20129;-37
2023/12/01 03:25:02;;;;;;;20.58;10.18;;;1.10;99.90;;;0.05;100.00;95617.84;4974471;28;20495;-38
2023/12/01 03:27:28;;;;;;;15.48;9.00;;;1.10;99.90;;;0.07;100.00;95629.06;4982406;28;20230;-37
2023/12/01 03:29:54;;;;;;;15.15;9.70;;;1.10;99.90;;;0.04;100.00;95610.97;4975702;28;20042;-38
2023/12/01 03:32:20;;;;;;;14.98;9.73;;;1.10;99.90;;;0.17;100.00;95627.06;4979454;28;20033;-37
2023/12/01 03:34:46;;;;;;;13.63;8.73;;;1.10;99.90;;;0.15;100.00;95611.56;4978712;28;20035;-37
2023/12/01 03:37:12;;;;;;;13.15;8.18;;;1.10;99.90;;;0.19;100.00;95615.75;4983648;28;20034;-38
2023/12/01 03:39:37;;;;;;;16.20;8.82;;;1.10;99.90;;;0.28;100.00;95617.28;4978087;28;20431;-37
2023/12/01 03:42:04;;;;;;;16.77;10.48;;;1.20;99.90;;;0.36;100.00;95611.91;4980611;28;20093;-37
2023/12/01 03:44:30;;;;;;;14.35;9.07;;;1.30;99.90;;;0.34;100.00;95608.50;4979623;28;20499;-38
2023/12/01 03:46:55;;;;;;;16.42;9.15;;;1.30;99.90;;;0.34;100.00;95599.00;4979063;28;20039;-36
2023/12/01 03:49:21;;;;;;;12.82;7.88;;;1.30;99.90;;;0.30;100.00;95605.13;4976302;28;20177;-36
2023/12/01 03:51:47;;;;;;;16.63;9.43;;;1.30;99.90;;;0.33;100.00;95609.41;4978180;28;20468;-36
2023/12/01 03:54:13;;;;;;;13.98;8.45;;;1.30;99.90;;;0.33;100.00;95612.84;4976134;28;20137;-36
2023/12/01 03:56:39;;;;;;;15.60;9.02;;;1.30;99.90;;;0.36;100.00;95615.34;4975959;28;20096;-36
2023/12/01 03:59:09;;;;;;;12.98;8.82;;;1.30;99.90;;;0.30;100.00;95612.91;4978934;28;20501;-37
2023/12/01 04:01:38;;;;;;;15.00;8.80;;;1.30;99.90;;;0.37;100.00;95616.19;4975760;28;20049;-36
2023/12/01 04:04:04;;;;;;;15.73;8.95;;;1.30;99.90;;;0.31;100.00;95618.97;4977252;28;20038;-37
2023/12/01 04:06:32;;;;;;;14.52;9.57;;;1.30;99.90;;;0.25;100.00;95616.50;4977459;28;20034;-36
2023/12/01 04:09:04;;;;;;;15.57;9.63;;;1.30;99.90;;;0.31;100.00;95626.75;4974337;28;20038;-39
2023/12/01 04:11:30;;;;;;;13.88;9.40;;;1.30;99.90;;;0.35;100.00;95623.16;4977315;28;20034;-38
2023/12/01 04:13:56;;;;;;;16.80;9.07;;;1.30;99.90;;;0.36;100.00;95617.09;4979787;28;20465;-37
2023/12/01 04:16:24;;;;;;;14.48;9.10;;;1.30;99.90;;;0.28;100.00;95619.03;4979936;28;20030;-37
2023/12/01 04:18:51;;;;;;;16.45;9.85;;;1.30;99.90;;;0.14;100.00;95622.81;4975935;28;20057;-39
2023/12/01 04:21:17;;;;;;;15.32;9.05;;;1.20;99.90;;;0.17;100.00;95633.09;4981733;28;20026;-36
2023/12/01 04:23:43;;;;;;;13.70;8.73;;;1.20;99.90;;;0.16;100.00;95622.75;4980273;28;20178;-38
2023/12/01 04:26:11;;;;;;;15.40;9.43;;;1.20;99.90;;;0.28;100.00;95627.66;4979012;28;20068;-37
2023/12/01 04:28:38;;;;;;;17.27;9.85;;;1.20;99.90;;;0.22;100.00;95622.63;4971839;28;20045;-38
2023/12/01 04:31:05;;;;;;;12.82;8.70;;;1.20;99.90;;;0.19;100.00;95623.53;4974682;28;20030;-38
2023/12/01 04:33:32;;;;;;;12.35;8.40;;;1.20;99.90;;;0.19;100.00;95620.94;4976380;28;20555;-37
2023/12/01 04:35:57;;;;;;;13.45;9.07;;;1.20;99.90;;;0.13;100.00;95626.28;4979339;28;20029;-37
2023/12/01 04:38:23;;;;;;;11.93;8.77;;;1.20;99.90;;;0.18;100.00;95633.97;4980277;28;20027;-36
2023/12/01 04:40:50;;;;;;;13.88;9.35;;;1.10;99.90;;;0.17;100.00;95622.72;4976358;28;20069;-39
2023/12/01 04:43:17;;;;;;;11.90;8.43;;;1.20;99.90;;;0.15;100.00;95624.50;4981665;28;20037;-37
2023/12/01 04:45:43;;;;;;;13.38;9.13;;;1.20;99.90;;;0.27;100.00;95630.28;4976348;28;20096;-37
2023/12/01 04:48:09;;;;;;;13.65;9.15;;;1.20;99.90;;;0.27;100.00;95638.06;4972644;28;20034;-37
2023/12/01 04:50:46;;;;;;;12.05;7.88;;;1.20;99.90;;;0.21;100.00;95630.44;4972905;28;20049;-37
2023/12/01 04:53:12;;;;;;;11.18;7.88;;;1.20;99.90;;;0.22;100.00;95635.59;4974384;28;20732;-37
2023/12/01 04:55:38;;;;;;;12.73;8.80;;;1.20;99.90;;;0.16;100.00;95618.44;4974301;28;20030;-37
2023/12/01 04:58:04;;;;;;;16.15;9.50;;;1.20;99.90;;;0.15;100.00;95627.09;4966815;28;20047;-37
2023/12/01 05:00:29;;;;;;;13.93;8.55;;;1.20;99.90;;;0.14;100.00;95633.19;4979876;28;21783;-37
2023/12/01 05:03:04;;;;;;;12.43;8.73;;;1.20;99.90;;;0.18;100.00;95623.59;4969699;28;20062;-37
2023/12/01 05:05:37;;;;;;;15.18;9.48;;;1.20;99.90;;;0.14;100.00;95624.53;4973904;28;20478;-38
2023/12/01 05:08:08;;;;;;;13.20;8.55;;;1.20;99.90;;;0.21;100.00;95626.09;4954912;28;20377;-38
2023/12/01 05:10:36;;;;;;;13.05;8.35;;;1.20;99.90;;;0.21;100.00;95633.88;4974173;28;20394;-37
2023/12/01 05:13:05;;;;;;;11.50;7.85;;;1.20;99.90;;;0.21;100.00;95633.03;4975673;28;25263;-37
2023/12/01 05:15:33;;;;;;;12.75;7.97;;;1.20;99.90;;;0.24;100.00;95638.16;4970287;28;20531;-38
2023/12/01 05:18:07;;;;;;;13.20;8.55;;;1.20;99.90;;;0.24;100.00;95645.94;4970487;28;20615;-38
2023/12/01 05:20:34;;;;;;;14.25;8.32;;;1.20;99.90;;;0.24;100.00;95638.16;4975995;28;20028;-38
2023/12/01 05:23:11;;;;;;;15.80;8.75;;;1.20;99.90;;;0.25;100.00;95630.34;4976239;28;20038;-38
2023/12/01 05:25:41;;;;;;;12.27;8.07;;;1.20;99.90;;;0.25;100.00;95630.34;4972852;28;20365;-38
2023/12/01 05:28:10;;;;;;;12.70;7.40;;;1.20;99.90;;;0.26;100.00;95628.59;4973159;28;20072;-38
2023/12/01 05:30:43;;;;;;;12.05;7.85;;;1.20;99.90;;;0.25;100.00;95635.53;4966929;28;20585;-37
2023/12/01 05:33:09;;;;;;;11.63;8.15;;;1.20;99.90;;;0.24;100.00;95636.41;4979400;28;20088;-38
2023/12/01 05:35:37;;;;;;;14.70;8.85;;;1.20;99.90;;;0.21;100.00;95654.63;4975524;28;20060;-37
2023/12/01 05:38:06;;;;;;;13.27;9.02;;;1.20;99.90;;;0.16;100.00;95648.69;4986001;28;20381;-36
2023/12/01 05:40:35;;;;;;;12.00;8.35;;;1.20;99.90;;;0.13;100.00;95652.22;4976574;28;20029;-36
2023/12/01 05:43:03;;;;;;;11.30;7.88;;;1.20;99.90;;;0.18;100.00;95655.56;4975892;28;20030;-37
2023/12/01 05:45:32;;;;;;;12.27;8.20;;;1.20;99.90;;;0.25;100.00;95652.81;4965580;28;20258;-37
2023/12/01 05:47:59;;;;;;;11.40;8.10;;;1.20;99.90;;;0.24;100.00;95659.72;4971758;28;20628;-38
2023/12/01 05:50:30;;;;;;;14.15;8.73;;;1.20;99.90;;;0.20;100.00;95663.28;4974123;28;20042;-38
2023/12/01 05:53:01;;;;;;;12.35;8.48;;;1.20;99.90;;;0.20;100.00;95668.47;4971892;28;20042;-37
2023/12/01 05:55:29;;;;;;;14.57;8.80;;;1.20;99.90;;;0.24;100.00;95658.88;4980736;28;20345;-37
2023/12/01 05:58:01;;;;;;;14.48;9.15;;;1.20;99.90;;;0.19;100.00;95659.84;4982588;28;20948;-37
2023/12/01 06:00:31;;;;;;;12.33;8.03;;;1.20;99.90;;;0.22;100.00;95661.50;4972599;28;20038;-37
2023/12/01 06:03:08;;;;;;;10.27;6.82;;;1.20;99.90;;;0.22;100.00;95660.66;4980717;28;20424;-37
2023/12/01 06:05:35;;;;;;;14.32;8.18;;;1.20;99.90;;;0.18;100.00;95655.56;4978431;28;20081;-39
2023/12/01 06:08:02;;;;;;;13.02;7.78;;;1.20;99.90;;;0.21;100.00;95661.53;4981303;28;20059;-38
2023/12/01 06:10:31;;;;;;;11.95;8.02;;;1.20;99.90;;;0.24;100.00;95654.56;4975504;28;20084;-38
2023/12/01 06:12:58;;;;;;;12.50;7.72;;;1.20;99.90;;;0.03;100.00;95630.00;4979127;28;20026;-39
2023/12/01 06:15:29;;;;;;;11.23;7.78;;;1.20;99.90;;;0.17;100.00;95664.19;4977894;28;20065;-36
2023/12/01 06:17:56;;;;;;;12.88;8.35;;;1.20;99.90;;;0.16;100.00;95672.88;4977820;28;20040;-37
2023/12/01 06:20:22;;;;;;;12.10;7.78;;;1.20;99.90;;;0.16;100.00;95675.47;4979584;28;20116;-36
2023/12/01 06:22:56;;;;;;;12.07;7.90;;;1.20;99.90;;;0.19;100.00;95682.31;4979114;28;20038;-38
2023/12/01 06:25:27;;;;;;;13.55;9.32;;;1.20;99.90;;;0.12;100.00;95696.31;4985625;28;20033;-37
2023/12/01 06:28:03;;;;;;;13.73;9.20;;;1.10;99.90;;;0.01;100.00;95688.78;4978822;28;20058;-38
2023/12/01 06:30:33;;;;;;;11.48;8.13;;;1.10;99.90;;;0.11;100.00;95700.66;4979533;28;20577;-37
2023/12/01 06:33:00;;;;;;;11.95;7.93;;;1.10;99.90;;;0.09;100.00;95686.88;4975167;28;20042;-37
2023/12/01 06:35:26;;;;;;;14.32;7.65;;;1.10;99.90;;;0.09;100.00;95694.66;4977831;28;20063;-36
2023/12/01 06:37:53;;;;;;;10.77;7.80;;;1.10;99.90;;;0.02;100.00;95676.66;4979106;28;20026;-38
2023/12/01 06:40:20;;;;;;;13.40;8.55;;;1.10;99.90;;;0.08;100.00;95686.91;4979913;28;20030;-37
2023/12/01 06:42:52;;;;;;;11.75;8.70;;;1.10;99.90;;;0.01;100.00;95691.38;4980098;28;20403;-37
2023/12/01 06:45:20;;;;;;;19.08;9.70;;;1.10;99.90;;;0.02;100.00;95707.78;4978647;28;20042;-37
2023/12/01 06:47:48;;;;;;;14.25;9.43;;;1.10;99.90;;;-0.03;100.00;95700.97;4978223;28;20142;-37
2023/12/01 06:50:16;;;;;;;12.68;8.45;;;1.00;99.90;;;0.02;100.00;95700.88;4974926;28;20034;-37
2023/12/01 06:52:47;;;;;;;10.85;7.47;;;1.00;99.90;;;0.02;100.00;95707.78;4975450;28;20483;-37
2023/12/01 06:55:13;;;;;;;15.45;9.48;;;1.00;99.90;;;0.01;100.00;95725.06;4980277;28;20214;-37
2023/12/01 06:57:42;;;;;;;12.93;9.00;;;1.00;99.90;;;-0.02;100.00;95722.53;4982222;28;20384;-39
2023/12/01 07:00:10;;;;;;;16.33;9.20;;;1.00;99.90;;;-0.04;100.00;95727.75;4973248;28;20518;-37
2023/12/01 07:02:37;;;;;;;14.18;8.85;;;1.00;99.90;;;-0.06;100.00;95723.50;4981922;28;20041;-38
2023/12/01 07:05:19;;;;;;;11.90;7.93;;;1.00;99.90;;;-0.02;100.00;95732.91;4977201;28;20394;-38
2023/12/01 07:07:47;;;;;;;10.98;7.50;;;1.00;99.90;;;0.01;100.00;95734.59;4979546;28;20115;-37
2023/12/01 07:10:13;;;;;;;12.00;7.95;;;1.00;99.90;;;-0.04;100.00;95722.56;4975921;28;20057;-37
2023/12/01 07:12:39;;;;;;;11.15;8.18;;;1.00;99.90;;;0.02;100.00;95733.69;4977604;28;20473;-38
2023/12/01 07:15:11;;;;;;;12.25;7.85;;;1.00;99.90;;;0.03;100.00;95727.63;4979320;28;20025;-37
2023/12/01 07:17:40;;;;;;;11.32;7.93;;;1.00;99.90;;;0.04;100.00;95734.53;4981597;28;20096;-37
2023/12/01 07:20:13;;;;;;;12.43;8.30;;;1.00;99.90;;;0.01;100.00;95734.59;4974688;28;20522;-37
2023/12/01 07:22:40;;;;;;;11.60;8.02;;;1.00;99.90;;;-0.04;100.00;95719.97;4979440;28;20576;-36
2023/12/01 07:25:10;;;;;;;11.60;7.88;;;1.00;99.90;;;0.07;100.00;95719.75;4974613;28;20041;-37
2023/12/01 07:27:39;;;;;;;10.85;7.80;;;1.10;99.90;;;0.13;100.00;95703.22;4981615;28;20451;-37
2023/12/01 07:30:06;;;;;;;12.93;7.85;;;1.10;99.90;;;0.12;100.00;95711.88;4977304;28;20037;-37
2023/12/01 07:32:33;;;;;;;16.50;9.40;;;1.10;99.90;;;0.09;100.00;95735.25;4983674;28;20096;-37
2023/12/01 07:34:59;;;;;;;14.30;9.23;;;1.10;99.90;;;0.09;100.00;95730.06;4977775;28;20034;-37
2023/12/01 07:37:24;;;;;;;15.20;9.07;;;1.10;99.90;;;0.11;100.00;95730.91;4981807;28;20036;-37
2023/12/01 07:39:50;;;;;;;13.23;8.43;;;1.10;99.90;;;0.16;100.00;95719.56;4977318;28;20292;-37
2023/12/01 07:42:16;;;;;;;15.32;10.63;;;1.20;99.90;;;0.16;100.00;95723.84;4981839;28;20125;-38
2023/12/01 07:44:42;;;;;;;15.00;8.65;;;1.10;99.90;;;0.11;100.00;95711.03;4979189;28;20068;-37
2023/12/01 07:47:11;;;;;;;13.32;8.57;;;1.20;99.90;;;0.18;100.00;95724.72;4977256;28;20034;-37
2023/12/01 07:49:38;;;;;;;15.27;9.00;;;1.20;99.90;;;0.21;100.00;95726.34;4980851;28;20568;-39
2023/12/01 07:52:06;;;;;;;15.30;8.98;;;1.20;99.90;;;0.20;100.00;95733.28;4980371;28;20083;-38
2023/12/01 07:54:35;;;;;;;12.80;8.35;;;1.20;99.90;;;0.20;100.00;95733.28;4977255;28;20376;-37
2023/12/01 07:57:01;;;;;;;12.68;8.50;;;1.20;99.90;;;0.18;100.00;95725.56;4980616;28;20050;-38
2023/12/01 07:59:27;;;;;;;14.60;9.20;;;1.20;99.90;;;0.35;100.00;95740.69;4978559;28;20042;-37
2023/12/01 08:01:53;;;;;;;14.80;9.18;;;1.30;99.90;;;0.38;100.00;95747.56;4981028;28;20382;-36
2023/12/01 08:04:19;;;;;;;14.00;9.50;;;1.30;99.90;;;0.39;100.00;95757.03;4977466;28;20058;-37
2023/12/01 08:06:45;;;;;;;14.40;8.68;;;1.30;99.90;;;0.39;100.00;95751.84;4980140;28;20407;-37
2023/12/01 08:09:16;;;;;;;14.40;9.38;;;1.40;99.90;;;0.34;100.00;95738.13;4977630;28;20031;-38
2023/12/01 08:11:45;;;;;;;14.75;9.27;;;1.40;99.90;;;0.41;100.00;95750.06;4979887;28;20038;-38
2023/12/01 08:14:10;;;;;;;12.98;8.48;;;1.40;99.90;;;0.46;100.00;95743.03;4972531;28;20061;-38
2023/12/01 08:16:36;;;;;;;13.77;9.80;;;1.40;99.90;;;0.48;100.00;95753.38;4973511;28;20026;-36
2023/12/01 08:19:03;;;;;;;13.52;9.18;;;1.50;99.90;;;0.46;100.00;95748.22;4979943;28;20390;-36
2023/12/01 08:21:31;;;;;;;13.75;9.20;;;1.40;99.90;;;0.42;100.00;95751.78;4982172;28;20606;-36
2023/12/01 08:23:57;;;;;;;12.93;9.05;;;1.40;99.90;;;0.45;100.00;95769.00;4983766;28;20034;-36
2023/12/01 08:26:23;;;;;;;17.38;9.27;;;1.40;99.90;;;0.48;100.00;95768.94;4976031;28;21293;-36
2023/12/01 08:28:48;;;;;;;13.85;9.32;;;1.40;99.90;;;0.43;100.00;95768.19;4974478;28;20122;-36
2023/12/01 08:31:14;;;;;;;13.50;8.82;;;1.40;99.90;;;0.46;100.00;95776.75;4975252;28;20431;-36
2023/12/01 08:33:40;;;;;;;12.55;7.78;;;1.40;99.90;;;0.51;100.00;95772.31;4975344;28;20026;-36
2023/12/01 08:36:07;;;;;;;13.70;8.70;;;1.50;99.90;;;0.50;100.00;95755.06;4977263;28;20031;-36
2023/12/01 08:38:33;;;;;;;12.73;8.38;;;1.50;99.90;;;0.54;100.00;95764.47;4976568;28;20779;-36
2023/12/01 08:40:58;;;;;;;14.20;9.45;;;1.50;99.90;;;0.59;100.00;95772.13;4975299;28;20153;-36
2023/12/01 08:43:24;;;;;;;14.07;9.50;;;1.60;99.90;;;0.64;100.00;95765.09;4973741;28;20536;-36
2023/12/01 08:45:50;;;;;;;13.80;8.45;;;1.60;99.90;;;0.67;100.00;95757.25;4977793;28;20454;-36
2023/12/01 08:48:15;;;;;;;16.35;9.13;;;1.60;99.90;;;0.76;100.00;95772.59;4969567;28;20218;-35
2023/12/01 08:50:41;;;;;;;13.80;9.05;;;1.70;99.90;;;0.85;100.00;95768.06;4976536;28;20371;-36
2023/12/01 08:53:07;;;;;;;11.73;8.45;;;1.80;99.90;;;0.93;100.00;95748.81;4976316;28;20035;-37
2023/12/01 08:55:33;;;;;;;13.40;8.73;;;1.80;99.90;;;0.98;100.00;95730.50;4983575;28;20025;-36
2023/12/01 08:57:58;;;;;;;14.50;10.10;;;2.00;99.90;;;1.10;100.00;95752.72;4976757;28;20386;-37
2023/12/01 09:00:24;;;;;;;14.23;9.32;;;2.10;99.90;;;1.08;100.00;95762.31;4975515;28;20045;-36
2023/12/01 09:02:51;;;;;;;15.35;9.95;;;2.10;99.90;;;1.06;100.00;95775.31;4970644;28;20042;-37
2023/12/01 09:05:17;;;;;;;12.85;9.02;;;2.10;99.90;;;1.00;100.00;95754.69;4966616;28;20049;-37
2023/12/01 09:07:49;;;;;;;15.43;9.48;;;2.00;99.90;;;1.05;100.00;95770.16;4977315;28;20038;-37
2023/12/01 09:10:15;;;;;;;12.45;8.45;;;2.00;99.90;;;1.09;100.00;95770.03;4968773;28;20077;-37
2023/12/01 09:12:42;;;;;;;13.43;8.38;;;2.00;99.90;;;1.13;100.00;95763.88;4979555;28;20034;-36
2023/12/01 09:15:10;;;;;;;12.05;7.90;;;2.10;99.90;;;1.24;100.00;95757.53;4986446;28;20037;-37
2023/12/01 09:17:36;;;;;;;11.45;8.13;;;2.10;99.90;;;1.37;100.00;95755.47;4982943;28;20030;-38
2023/12/01 09:20:02;;;;;;;11.77;8.15;;;2.30;99.90;;;1.46;100.00;95753.47;4981547;28;20421;-37
2023/12/01 09:22:28;;;;;;;12.57;8.82;;;2.40;99.90;;;1.50;100.00;95769.81;4980961;28;20399;-38
2023/12/01 09:24:54;;;;;;;14.75;9.43;;;2.40;99.90;;;1.44;100.00;95759.63;4979150;28;20035;-37
2023/12/01 09:27:19;;;;;;;11.85;8.52;;;2.40;99.90;;;1.62;100.00;95764.28;4964847;28;20034;-37
2023/12/01 09:29:46;;;;;;;12.48;8.63;;;2.50;99.90;;;1.53;100.00;95757.59;4965446;28;20041;-36
2023/12/01 09:32:11;;;;;;;13.77;8.63;;;2.50;99.90;;;1.53;100.00;95768.00;4969637;28;20506;-36
2023/12/01 09:34:37;;;;;;;12.32;8.52;;;2.50;99.90;;;1.49;100.00;95773.31;4980869;28;20037;-37
2023/12/01 09:37:03;;;;;;;12.02;8.00;;;2.40;99.90;;;1.29;100.00;95761.75;4977312;28;20042;-36
2023/12/01 09:39:29;;;;;;;12.68;9.23;;;2.40;99.90;;;1.32;100.00;95802.34;4977136;28;21419;-36
2023/12/01 09:41:55;;;;;;;13.27;8.93;;;2.30;99.90;;;1.27;100.00;95799.00;4970763;28;20363;-37
2023/12/01 09:44:21;;;;;;;11.27;8.07;;;2.20;99.90;;;1.20;100.00;95802.66;4974126;28;20506;-36
2023/12/01 09:46:50;;;;;;;13.80;8.70;;;2.20;99.90;;;1.22;100.00;95795.69;4969692;28;20132;-36
2023/12/01 09:49:16;;;;;;;11.63;8.27;;;2.20;99.90;;;1.21;100.00;95786.19;4968349;28;20045;-36
2023/12/01 09:51:41;;;;;;;15.65;9.10;;;2.10;99.90;;;1.22;100.00;95787.88;4971994;28;20058;-37
2023/12/01 09:54:07;;;;;;;13.90;8.82;;;2.20;99.90;;;1.26;100.00;95776.56;4973560;28;20036;-36
2023/12/01 09:56:33;;;;;;;12.32;8.70;;;2.20;99.90;;;1.31;100.00;95777.25;4977495;28;20412;-36
2023/12/01 09:58:59;;;;;;;14.98;9.60;;;2.20;99.90;;;1.34;100.00;95775.44;4993029;28;20030;-36
2023/12/01 10:01:25;;;;;;;12.18;8.57;;;2.20;99.90;;;1.29;100.00;95776.44;4970408;28;20093;-36
2023/12/01 10:03:53;;;;;;;11.77;8.43;;;2.30;99.90;;;1.24;100.00;95762.72;4966710;28;20018;-36
2023/12/01 10:06:18;;;;;;;12.32;8.60;;;2.20;99.90;;;1.37;100.00;95774.50;4967342;28;20039;-36
2023/12/01 10:08:45;;;;;;;12.10;8.38;;;2.30;99.90;;;1.44;100.00;95781.25;4971364;28;20033;-37
2023/12/01 10:11:25;;;;;;;12.90;8.57;;;2.30;99.90;;;1.42;100.00;95759.66;4971660;28;20133;-36
2023/12/01 10:13:52;;;;;;;13.23;8.90;;;2.30;99.90;;;1.44;100.00;95750.06;4975481;28;20035;-37
2023/12/01 10:16:19;;;;;;;11.38;7.85;;;2.30;99.90;;;1.45;100.00;95745.72;4976971;28;20350;-36
2023/12/01 10:19:01;;;;;;;13.65;9.30;;;2.40;99.90;;;1.41;100.00;95757.94;5016403;23;20049;-37